createdAt,value
2019-03-06T00:01:40.928Z,99790.09
2019-03-06T00:04:10.142Z,99794.87
2019-03-06T00:06:39.353Z,99790.03
2019-03-06T00:09:08.958Z,99786.47
2019-03-06T00:11:38.135Z,99783.41
2019-03-06T00:14:07.387Z,99791.69
2019-03-06T00:16:36.606Z,99789.08
2019-03-06T00:19:05.807Z,99787.33
2019-03-06T00:21:34.987Z,99784.69
2019-03-06T00:24:04.314Z,99785.97
2019-03-06T00:26:33.451Z,99785.02
2019-03-06T00:29:02.649Z,99781.08
2019-03-06T00:31:31.844Z,99784.12
2019-03-06T00:34:01.055Z,99778.38
2019-03-06T00:36:31.530Z,99786.63
2019-03-06T00:39:00.727Z,99781.38
2019-03-06T00:41:44.636Z,99783.56
2019-03-06T00:44:13.853Z,99780.47
2019-03-06T00:46:43.055Z,99776.43
2019-03-06T00:49:12.247Z,99776.43
2019-03-06T00:51:41.452Z,99776.86
2019-03-06T00:54:10.830Z,99775.50
2019-03-06T00:56:40.042Z,99770.23
2019-03-06T00:59:09.238Z,99770.16
2019-03-06T01:01:38.408Z,99771.85
2019-03-06T01:04:07.694Z,99757.86
2019-03-06T01:06:36.954Z,99762.64
2019-03-06T01:09:07.362Z,99761.72
2019-03-06T01:11:36.645Z,99775.60
2019-03-06T01:14:05.823Z,99777.28
2019-03-06T01:16:35.047Z,99779.43
2019-03-06T01:19:04.263Z,99782.40
2019-03-06T01:21:33.441Z,99775.46
2019-03-06T01:24:02.627Z,99785.83
2019-03-06T01:26:31.837Z,99786.63
2019-03-06T01:29:01.007Z,99785.29
2019-03-06T01:31:30.211Z,99786.50
2019-03-06T01:34:11.049Z,99777.81
2019-03-06T01:37:08.239Z,99781.27
2019-03-06T01:39:56.364Z,99775.14
2019-03-06T01:42:41.995Z,99776.02
2019-03-06T01:45:12.196Z,99773.45
2019-03-06T01:47:41.381Z,99768.75
2019-03-06T01:50:13.225Z,99772.29
2019-03-06T01:52:42.466Z,99768.38
2019-03-06T01:55:13.678Z,99765.34
2019-03-06T01:57:42.908Z,99763.16
2019-03-06T02:00:15.340Z,99755.77
2019-03-06T02:02:44.564Z,99755.34
2019-03-06T02:05:14.032Z,99747.52
2019-03-06T02:07:43.448Z,99751.89
2019-03-06T02:10:13.334Z,99748.83
2019-03-06T02:12:42.528Z,99755.00
2019-03-06T02:15:33.471Z,99751.66
2019-03-06T02:18:02.647Z,99747.77
2019-03-06T02:20:31.828Z,99740.01
2019-03-06T02:23:01.045Z,99744.83
2019-03-06T02:25:30.400Z,99745.33
2019-03-06T02:27:59.594Z,99751.84
2019-03-06T02:30:30.562Z,99747.95
2019-03-06T02:32:59.789Z,99746.28
2019-03-06T02:35:29.370Z,99585.02
2019-03-06T02:37:58.652Z,99744.18
2019-03-06T02:40:27.847Z,99732.98
2019-03-06T02:42:57.061Z,99733.42
2019-03-06T02:45:26.250Z,99737.78
2019-03-06T02:47:55.447Z,99726.60
2019-03-06T02:50:25.008Z,99717.55
2019-03-06T02:52:54.206Z,99712.33
2019-03-06T02:55:23.462Z,99704.56
2019-03-06T02:57:58.120Z,99710.66
2019-03-06T03:00:51.242Z,99702.81
2019-03-06T03:03:48.408Z,99698.91
2019-03-06T03:06:23.148Z,99699.82
2019-03-06T03:08:51.426Z,99691.14
2019-03-06T03:11:20.674Z,99692.94
2019-03-06T03:13:49.884Z,99683.00
2019-03-06T03:16:19.084Z,99675.66
2019-03-06T03:18:48.296Z,99676.11
2019-03-06T03:21:17.492Z,99673.09
2019-03-06T03:23:46.716Z,99662.69
2019-03-06T03:26:15.917Z,99668.42
2019-03-06T03:28:45.129Z,99660.80
2019-03-06T03:31:14.282Z,99658.73
2019-03-06T03:33:43.514Z,99655.36
2019-03-06T03:36:12.706Z,99656.31
2019-03-06T03:38:41.919Z,99651.56
2019-03-06T03:41:11.104Z,99649.39
2019-03-06T03:43:40.489Z,99648.98
2019-03-06T03:46:09.741Z,99648.64
2019-03-06T03:48:38.983Z,99649.55
2019-03-06T03:51:08.198Z,99649.14
2019-03-06T03:53:37.401Z,99645.25
2019-03-06T03:56:06.765Z,99641.82
2019-03-06T03:58:35.966Z,99642.73
2019-03-06T04:01:05.409Z,99644.08
2019-03-06T04:03:34.599Z,99646.75
2019-03-06T04:06:03.814Z,99645.92
2019-03-06T04:08:33.280Z,99647.20
2019-03-06T04:11:02.492Z,99639.78
2019-03-06T04:13:31.695Z,99637.24
2019-03-06T04:16:00.947Z,99632.93
2019-03-06T04:18:30.158Z,99633.34
2019-03-06T04:20:59.328Z,99627.26
2019-03-06T04:23:28.544Z,99629.02
2019-03-06T04:25:57.721Z,99624.69
2019-03-06T04:28:28.066Z,99623.83
2019-03-06T04:30:57.401Z,99616.41
2019-03-06T04:33:26.733Z,99606.84
2019-03-06T04:35:55.922Z,99611.19
2019-03-06T04:38:25.140Z,99600.31
2019-03-06T04:40:54.382Z,99602.08
2019-03-06T04:43:23.576Z,99601.23
2019-03-06T04:45:52.774Z,99608.66
2019-03-06T04:48:22.014Z,99609.50
2019-03-06T04:50:51.196Z,99606.02
2019-03-06T04:53:20.430Z,99605.19
2019-03-06T04:55:49.635Z,99607.38
2019-03-06T04:58:18.838Z,99604.78
2019-03-06T05:00:48.034Z,99595.23
2019-03-06T05:03:17.273Z,99603.08
2019-03-06T05:05:46.484Z,99593.50
2019-03-06T05:08:15.684Z,99591.33
2019-03-06T05:10:44.924Z,99592.19
2019-03-06T05:13:14.147Z,99586.95
2019-03-06T05:15:43.375Z,99583.91
2019-03-06T05:18:31.505Z,99583.03
2019-03-06T05:21:00.773Z,99588.69
2019-03-06T05:23:29.961Z,99587.84
2019-03-06T05:25:59.165Z,99575.61
2019-03-06T05:28:28.366Z,99578.69
2019-03-06T05:30:57.569Z,99575.18
2019-03-06T05:33:28.732Z,99560.78
2019-03-06T05:36:42.778Z,99558.63
2019-03-06T05:39:12.347Z,99555.57
2019-03-06T05:41:41.593Z,99557.74
2019-03-06T05:44:10.818Z,99550.33
2019-03-06T05:46:40.034Z,99560.35
2019-03-06T05:49:09.506Z,99556.41
2019-03-06T05:51:38.698Z,99553.80
2019-03-06T05:54:07.914Z,99538.09
2019-03-06T05:56:37.111Z,99531.18
2019-03-06T05:59:06.342Z,99537.31
2019-03-06T06:01:35.616Z,99530.79
2019-03-06T06:04:04.784Z,99533.38
2019-03-06T06:06:34.012Z,99534.27
2019-03-06T06:09:03.636Z,99521.63
2019-03-06T06:11:32.792Z,99530.80
2019-03-06T06:14:01.976Z,99522.11
2019-03-06T06:16:31.177Z,99516.85
2019-03-06T06:19:01.755Z,99523.41
2019-03-06T06:21:51.853Z,99520.81
2019-03-06T06:24:26.731Z,99511.22
2019-03-06T06:26:55.955Z,99500.32
2019-03-06T06:29:25.176Z,99500.74
2019-03-06T06:31:54.521Z,99492.47
2019-03-06T06:34:23.717Z,99483.73
2019-03-06T06:36:52.949Z,99482.86
2019-03-06T06:39:22.150Z,99485.48
2019-03-06T06:41:51.336Z,99475.89
2019-03-06T06:44:20.581Z,99481.11
2019-03-06T06:46:49.811Z,99477.19
2019-03-06T06:49:19.000Z,99466.70
2019-03-06T06:52:46.963Z,99473.23
2019-03-06T06:55:48.261Z,99461.44
2019-03-06T06:58:57.060Z,99449.20
2019-03-06T07:02:14.357Z,99447.90
2019-03-06T07:05:10.564Z,99445.28
2019-03-06T07:07:47.130Z,99434.83
2019-03-06T07:10:34.051Z,99435.66
2019-03-06T07:13:25.000Z,99435.22
2019-03-06T07:16:13.319Z,99422.98
2019-03-06T07:19:01.466Z,99437.83
2019-03-06T07:21:44.422Z,99441.27
2019-03-06T07:24:22.813Z,99432.53
2019-03-06T07:27:15.386Z,99432.51
2019-03-06T07:30:06.697Z,99417.22
2019-03-06T07:32:53.683Z,99411.48
2019-03-06T07:36:18.979Z,99410.59
2019-03-06T07:38:50.879Z,99400.52
2019-03-06T07:41:41.841Z,99408.81
2019-03-06T07:44:30.670Z,99408.30
2019-03-06T07:47:21.763Z,99410.01
2019-03-06T07:50:12.205Z,99402.52
2019-03-06T07:53:00.366Z,99407.65
2019-03-06T07:55:37.281Z,99409.27
2019-03-06T07:58:55.937Z,99411.34
2019-03-06T08:01:27.890Z,99414.76
2019-03-06T08:04:11.857Z,99407.97
2019-03-06T08:06:43.598Z,99412.62
2019-03-06T08:09:17.088Z,99407.41
2019-03-06T08:12:00.770Z,99408.67
2019-03-06T08:14:47.476Z,99404.66
2019-03-06T08:17:27.894Z,99396.19
2019-03-06T08:20:16.222Z,99383.19
2019-03-06T08:23:02.250Z,99384.57
2019-03-06T08:25:46.778Z,99385.89
2019-03-06T08:28:16.012Z,99386.88
2019-03-06T08:31:16.415Z,99376.63
2019-03-06T08:33:45.715Z,99375.05
2019-03-06T08:36:14.938Z,99366.92
2019-03-06T08:38:44.254Z,99358.48
2019-03-06T08:41:13.515Z,99369.59
2019-03-06T08:43:42.725Z,99365.79
2019-03-06T08:46:33.691Z,99355.08
2019-03-06T08:49:26.678Z,99355.83
2019-03-06T08:52:06.209Z,99355.25
2019-03-06T08:55:03.572Z,99370.45
2019-03-06T08:57:57.544Z,99353.46
2019-03-06T09:01:01.051Z,99350.80
2019-03-06T09:03:59.555Z,99349.83
2019-03-06T09:06:47.678Z,99340.87
2019-03-06T09:09:34.632Z,99341.39
2019-03-06T09:12:31.844Z,99333.34
2019-03-06T09:15:31.963Z,99330.66
2019-03-06T09:18:29.073Z,99325.08
2019-03-06T09:21:17.227Z,99313.64
2019-03-06T09:24:14.493Z,99322.40
2019-03-06T09:27:02.647Z,99310.91
2019-03-06T09:29:39.982Z,99294.38
2019-03-06T09:32:34.017Z,99296.06
2019-03-06T09:35:22.202Z,99297.31
2019-03-06T09:38:14.316Z,99284.89
2019-03-06T09:40:58.374Z,99274.00
2019-03-06T09:43:44.781Z,99268.14
2019-03-06T09:46:22.850Z,99266.19
2019-03-06T09:49:11.772Z,99259.61
2019-03-06T09:52:08.452Z,99259.31
2019-03-06T09:54:56.654Z,99251.45
2019-03-06T09:57:43.297Z,99259.48
2019-03-06T10:00:25.836Z,99258.23
2019-03-06T10:03:14.603Z,99245.52
2019-03-06T10:06:20.986Z,99239.08
2019-03-06T10:09:14.855Z,99217.70
2019-03-06T10:12:08.737Z,99226.78
2019-03-06T10:14:43.560Z,99212.92
2019-03-06T10:17:24.437Z,99211.73
2019-03-06T10:19:56.683Z,99226.81
2019-03-06T10:22:25.913Z,99215.91
2019-03-06T10:24:55.751Z,99212.47
2019-03-06T10:27:25.081Z,99200.06
2019-03-06T10:29:54.267Z,99214.90
2019-03-06T10:32:23.528Z,99188.55
2019-03-06T10:34:54.922Z,99185.26
2019-03-06T10:37:23.679Z,99173.03
2019-03-06T10:39:52.920Z,99172.91
2019-03-06T10:42:22.114Z,99165.89
2019-03-06T10:44:51.386Z,99163.66
2019-03-06T10:47:20.577Z,99153.94
2019-03-06T10:49:49.807Z,99154.16
2019-03-06T10:52:19.002Z,99148.28
2019-03-06T10:54:48.228Z,99151.12
2019-03-06T10:57:17.435Z,99144.75
2019-03-06T10:59:46.651Z,99134.89
2019-03-06T11:02:15.840Z,99146.32
2019-03-06T11:04:52.594Z,99139.19
2019-03-06T11:07:22.498Z,99131.88
2019-03-06T11:09:51.700Z,99121.16
2019-03-06T11:12:20.906Z,99110.58
2019-03-06T11:14:50.125Z,99101.67
2019-03-06T11:17:19.545Z,99127.23
2019-03-06T11:19:49.241Z,99106.93
2019-03-06T11:22:18.660Z,99091.77
2019-03-06T11:24:48.016Z,99075.12
2019-03-06T11:27:17.273Z,99067.81
2019-03-06T11:29:46.509Z,99065.55
2019-03-06T11:32:15.815Z,99058.92
2019-03-06T11:34:45.425Z,99045.30
2019-03-06T11:37:15.231Z,99085.63
2019-03-06T11:39:44.425Z,99043.08
2019-03-06T11:42:13.626Z,99049.09
2019-03-06T11:44:42.831Z,99048.98
2019-03-06T11:47:12.324Z,99057.45
2019-03-06T11:49:41.527Z,99050.97
2019-03-06T11:52:10.761Z,99043.06
2019-03-06T11:54:40.061Z,99027.32
2019-03-06T11:57:09.375Z,99020.17
2019-03-06T11:59:38.589Z,99014.39
2019-03-06T12:02:07.908Z,99021.52
2019-03-06T12:04:37.287Z,99013.52
2019-03-06T12:07:06.754Z,99010.75
2019-03-06T12:09:35.999Z,99009.08
2019-03-06T12:12:05.868Z,98988.98
2019-03-06T12:14:35.108Z,98973.70
2019-03-06T12:17:04.332Z,98988.59
2019-03-06T12:19:34.016Z,98980.95
2019-03-06T12:22:03.213Z,98989.56
2019-03-06T12:24:32.513Z,98962.06
2019-03-06T12:27:01.711Z,98950.41
2019-03-06T12:29:30.927Z,98952.20
2019-03-06T12:32:00.245Z,98941.76
2019-03-06T12:34:29.651Z,98957.03
2019-03-06T12:36:58.861Z,98948.67
2019-03-06T12:39:28.088Z,98942.66
2019-03-06T12:41:58.820Z,98951.02
2019-03-06T12:44:28.265Z,98941.34
2019-03-06T12:46:58.483Z,98949.52
2019-03-06T12:49:29.041Z,98944.39
2019-03-06T12:51:58.243Z,98934.84
2019-03-06T12:54:27.612Z,98920.81
2019-03-06T12:56:56.830Z,98923.30
2019-03-06T12:59:26.073Z,98907.50
2019-03-06T13:01:55.280Z,98908.52
2019-03-06T13:04:24.473Z,98896.48
2019-03-06T13:06:53.680Z,98892.84
2019-03-06T13:09:22.978Z,98880.63
2019-03-06T13:11:52.201Z,98892.62
2019-03-06T13:14:21.717Z,98887.66
2019-03-06T13:16:51.036Z,98874.52
2019-03-06T13:19:20.386Z,98870.53
2019-03-06T13:21:49.700Z,98874.52
2019-03-06T13:24:18.950Z,98860.38
2019-03-06T13:26:48.196Z,98849.52
2019-03-06T13:29:17.611Z,98843.13
2019-03-06T13:31:46.819Z,98856.23
2019-03-06T13:34:50.130Z,98841.92
2019-03-06T13:37:12.161Z,98835.29
2019-03-06T13:39:41.397Z,98823.20
2019-03-06T13:42:10.628Z,98811.26
2019-03-06T13:44:39.862Z,98812.19
2019-03-06T13:47:09.138Z,98800.52
2019-03-06T13:49:38.365Z,98817.77
2019-03-06T13:52:07.619Z,98821.55
2019-03-06T13:54:36.852Z,98835.61
2019-03-06T13:57:06.159Z,98812.58
2019-03-06T13:59:35.344Z,98813.11
2019-03-06T14:02:04.683Z,98802.44
2019-03-06T14:04:33.933Z,98803.20
2019-03-06T14:07:03.248Z,98787.89
2019-03-06T14:09:32.454Z,98787.89
2019-03-06T14:12:01.735Z,98787.77
2019-03-06T14:14:30.928Z,98779.00
2019-03-06T14:17:00.185Z,98780.13
2019-03-06T14:19:29.455Z,98774.88
2019-03-06T14:21:58.667Z,98761.77
2019-03-06T14:24:28.002Z,98758.58
2019-03-06T14:26:57.230Z,98758.85
2019-03-06T14:29:26.528Z,98753.41
2019-03-06T14:31:55.764Z,98757.16
2019-03-06T14:34:25.222Z,98754.87
2019-03-06T14:36:54.686Z,98762.09
2019-03-06T14:39:29.149Z,98769.72
2019-03-06T14:41:59.560Z,98749.61
2019-03-06T14:44:28.863Z,98760.63
2019-03-06T14:46:58.282Z,98739.41
2019-03-06T14:49:27.499Z,98741.61
2019-03-06T14:51:56.816Z,98740.28
2019-03-06T14:54:26.182Z,98737.63
2019-03-06T14:56:55.540Z,98725.77
2019-03-06T14:59:24.844Z,98722.58
2019-03-06T15:01:54.071Z,98719.00
2019-03-06T15:04:23.330Z,98709.78
2019-03-06T15:06:52.513Z,98708.05
2019-03-06T15:09:28.658Z,98701.75
2019-03-06T15:11:57.896Z,98694.39
2019-03-06T15:14:35.810Z,98692.52
2019-03-06T15:16:58.263Z,98687.84
2019-03-06T15:19:27.600Z,98681.81
2019-03-06T15:21:56.931Z,98681.28
2019-03-06T15:24:26.301Z,98684.13
2019-03-06T15:26:55.530Z,98678.42
2019-03-06T15:29:24.830Z,98668.22
2019-03-06T15:31:54.376Z,98671.20
2019-03-06T15:34:24.505Z,98690.09
2019-03-06T15:36:53.869Z,98678.95
2019-03-06T15:39:31.317Z,98668.01
2019-03-06T15:42:02.389Z,98671.17
2019-03-06T15:44:32.488Z,98675.80
2019-03-06T15:47:01.711Z,98655.59
2019-03-06T15:49:31.067Z,98636.23
2019-03-06T15:52:00.375Z,98620.45
2019-03-06T15:54:29.787Z,98631.79
2019-03-06T15:56:59.415Z,98632.08
2019-03-06T15:59:28.843Z,98635.19
2019-03-06T16:01:58.094Z,98629.43
2019-03-06T16:04:27.369Z,98633.13
2019-03-06T16:06:56.742Z,98640.56
2019-03-06T16:09:26.855Z,98634.59
2019-03-06T16:11:56.285Z,98638.03
2019-03-06T16:14:25.756Z,98634.13
2019-03-06T16:16:54.998Z,98628.76
2019-03-06T16:19:24.262Z,98650.89
2019-03-06T16:21:53.458Z,98636.44
2019-03-06T16:24:23.198Z,98642.14
2019-03-06T16:26:52.418Z,98641.80
2019-03-06T16:29:23.696Z,98637.30
2019-03-06T16:31:52.872Z,98642.39
2019-03-06T16:34:22.124Z,98643.84
2019-03-06T16:36:51.577Z,98649.53
2019-03-06T16:39:21.462Z,98648.21
2019-03-06T16:41:50.745Z,98650.86
2019-03-06T16:44:20.402Z,98648.95
2019-03-06T16:46:49.764Z,98639.22
2019-03-06T16:49:19.007Z,98642.17
2019-03-06T16:51:49.847Z,98641.81
2019-03-06T16:54:19.610Z,98642.73
2019-03-06T16:56:48.905Z,98639.22
2019-03-06T16:59:18.270Z,98634.56
2019-03-06T17:01:47.558Z,98638.08
2019-03-06T17:04:19.228Z,98636.05
2019-03-06T17:06:48.708Z,98637.89
2019-03-06T17:09:18.458Z,98644.42
2019-03-06T17:11:48.011Z,98640.30
2019-03-06T17:14:17.338Z,98644.09
2019-03-06T17:16:46.935Z,98636.22
2019-03-06T17:19:16.394Z,98644.50
2019-03-06T17:21:45.837Z,98638.30
2019-03-06T17:24:15.399Z,98612.78
2019-03-06T17:26:44.939Z,98614.52
2019-03-06T17:29:15.278Z,98608.97
2019-03-06T17:31:44.709Z,98618.34
2019-03-06T17:34:14.330Z,98615.07
2019-03-06T17:36:44.026Z,98614.84
2019-03-06T17:39:15.774Z,98603.59
2019-03-06T17:41:45.080Z,98600.17
2019-03-06T17:44:14.310Z,98601.72
2019-03-06T17:46:43.691Z,98592.17
2019-03-06T17:49:13.172Z,98598.84
2019-03-06T17:51:42.513Z,98597.57
2019-03-06T17:54:11.923Z,98589.44
2019-03-06T17:56:41.910Z,98588.63
2019-03-06T17:59:11.296Z,98585.41
2019-03-06T18:01:40.755Z,98577.73
2019-03-06T18:04:14.833Z,98576.21
2019-03-06T18:06:44.374Z,98574.59
2019-03-06T18:09:13.827Z,98572.34
2019-03-06T18:11:43.080Z,98564.91
2019-03-06T18:14:12.307Z,98567.37
2019-03-06T18:16:41.526Z,98560.87
2019-03-06T18:19:11.042Z,98561.67
2019-03-06T18:21:40.445Z,98555.58
2019-03-06T18:24:09.746Z,98561.09
2019-03-06T18:26:39.537Z,98555.29
2019-03-06T18:29:08.903Z,98553.62
2019-03-06T18:31:38.243Z,98542.59
2019-03-06T18:34:07.703Z,98555.80
2019-03-06T18:36:37.099Z,98543.39
2019-03-06T18:39:17.770Z,98540.75
2019-03-06T18:41:47.343Z,98536.27
2019-03-06T18:44:16.682Z,98536.27
2019-03-06T18:46:46.425Z,98529.66
2019-03-06T18:49:15.706Z,98529.27
2019-03-06T18:51:45.043Z,98528.45
2019-03-06T18:54:14.445Z,98534.55
2019-03-06T18:56:43.917Z,98530.64
2019-03-06T18:59:13.381Z,98527.64
2019-03-06T19:01:42.826Z,98519.72
2019-03-06T19:04:12.244Z,98520.81
2019-03-06T19:06:41.738Z,98522.14
2019-03-06T19:09:11.545Z,98514.79
2019-03-06T19:11:40.981Z,98516.69
2019-03-06T19:14:10.519Z,98518.62
2019-03-06T19:16:39.831Z,98507.14
2019-03-06T19:19:09.550Z,98505.93
2019-03-06T19:21:39.042Z,98505.64
2019-03-06T19:24:08.403Z,98504.38
2019-03-06T19:26:37.997Z,98504.92
2019-03-06T19:29:07.310Z,98510.06
2019-03-06T19:31:36.567Z,98501.67
2019-03-06T19:34:05.917Z,98503.60
2019-03-06T19:36:35.527Z,98496.94
2019-03-06T19:39:10.126Z,98496.84
2019-03-06T19:41:39.393Z,98495.88
2019-03-06T19:44:08.755Z,98494.49
2019-03-06T19:46:38.035Z,98503.12
2019-03-06T19:49:07.401Z,98491.22
2019-03-06T19:51:36.751Z,98489.09
2019-03-06T19:54:06.049Z,98482.09
2019-03-06T19:56:35.788Z,98483.00
2019-03-06T19:59:05.358Z,98478.98
2019-03-06T20:01:34.868Z,98475.08
2019-03-06T20:04:04.424Z,98467.89
2019-03-06T20:06:33.745Z,98464.27
2019-03-06T20:09:03.552Z,98466.11
2019-03-06T20:11:34.841Z,98451.92
2019-03-06T20:14:04.267Z,98457.95
2019-03-06T20:16:34.124Z,98447.78
2019-03-06T20:19:03.813Z,98453.06
2019-03-06T20:21:33.639Z,98441.57
2019-03-06T20:24:03.035Z,98446.00
2019-03-06T20:26:32.441Z,98449.62
2019-03-06T20:29:02.246Z,98449.09
2019-03-06T20:31:32.172Z,98438.84
2019-03-06T20:34:01.939Z,98447.85
2019-03-06T20:36:31.618Z,98436.41
2019-03-06T20:39:01.192Z,98437.52
2019-03-06T20:41:30.756Z,98430.04
2019-03-06T20:44:00.871Z,98435.42
2019-03-06T20:46:30.306Z,98428.41
2019-03-06T20:48:59.563Z,98427.09
2019-03-06T20:51:29.836Z,98428.70
2019-03-06T20:54:00.899Z,98427.48
2019-03-06T20:56:30.305Z,98430.37
2019-03-06T20:58:59.677Z,98430.95
2019-03-06T21:01:29.659Z,98427.05
2019-03-06T21:03:59.085Z,98425.38
2019-03-06T21:06:33.514Z,98416.52
2019-03-06T21:08:59.606Z,98420.66
2019-03-06T21:11:29.058Z,98413.53
2019-03-06T21:13:58.375Z,98411.34
2019-03-06T21:16:28.008Z,98404.52
2019-03-06T21:18:57.865Z,98402.97
2019-03-06T21:21:27.147Z,98400.32
2019-03-06T21:23:56.466Z,98392.45
2019-03-06T21:26:25.814Z,98391.69
2019-03-06T21:28:55.045Z,98387.11
2019-03-06T21:31:24.320Z,98375.42
2019-03-06T21:33:53.892Z,98376.80
2019-03-06T21:36:23.369Z,98386.05
2019-03-06T21:38:52.804Z,98387.72
2019-03-06T21:41:22.477Z,98384.91
2019-03-06T21:43:51.817Z,98381.95
2019-03-06T21:46:21.403Z,98379.89
2019-03-06T21:48:50.758Z,98381.38
2019-03-06T21:51:20.059Z,98382.70
2019-03-06T21:53:49.330Z,98382.81
2019-03-06T21:56:18.623Z,98384.30
2019-03-06T21:58:47.909Z,98383.84
2019-03-06T22:01:17.377Z,98386.75
2019-03-06T22:03:46.627Z,98392.14
2019-03-06T22:06:17.653Z,98380.77
2019-03-06T22:08:46.829Z,98383.06
2019-03-06T22:11:16.033Z,98385.41
2019-03-06T22:13:45.295Z,98387.70
2019-03-06T22:16:14.528Z,98383.74
2019-03-06T22:18:43.758Z,98379.47
2019-03-06T22:21:12.976Z,98371.61
2019-03-06T22:23:42.166Z,98371.25
2019-03-06T22:26:11.362Z,98367.75
2019-03-06T22:28:40.680Z,98364.66
2019-03-06T22:31:09.882Z,98371.31
2019-03-06T22:33:39.130Z,98368.27
2019-03-06T22:36:08.328Z,98371.36
2019-03-06T22:38:37.598Z,98374.81
2019-03-06T22:41:06.845Z,98370.91
2019-03-06T22:43:36.071Z,98362.58
2019-03-06T22:46:05.271Z,98360.45
2019-03-06T22:48:36.842Z,98356.50
2019-03-06T22:51:05.427Z,98357.02
2019-03-06T22:53:34.689Z,98353.56
2019-03-06T22:56:04.052Z,98355.75
2019-03-06T22:58:33.423Z,98356.20
2019-03-06T23:01:11.627Z,98342.31
2019-03-06T23:03:40.813Z,98347.22
2019-03-06T23:06:10.018Z,98342.45
2019-03-06T23:08:39.237Z,98341.65
2019-03-06T23:11:08.849Z,98334.75
2019-03-06T23:13:38.029Z,98331.30
2019-03-06T23:16:07.201Z,98332.22
2019-03-06T23:18:36.448Z,98333.25
2019-03-06T23:21:05.724Z,98328.38
2019-03-06T23:23:34.939Z,98328.78
2019-03-06T23:26:04.265Z,98318.22
2019-03-06T23:28:33.463Z,98317.36
2019-03-06T23:31:02.643Z,98310.36
2019-03-06T23:33:31.831Z,98304.11
2019-03-06T23:36:01.010Z,98304.81
2019-03-06T23:38:30.398Z,98296.30
2019-03-06T23:40:59.568Z,98294.46
2019-03-06T23:43:28.787Z,98301.09
2019-03-06T23:45:57.963Z,98294.48
2019-03-06T23:48:27.169Z,98293.17
2019-03-06T23:50:56.351Z,98294.48
2019-03-06T23:53:50.739Z,98282.84
2019-03-06T23:56:19.929Z,98278.42
2019-03-06T23:58:49.131Z,98282.14
